sensor_id;sensor_type;location;lat;lon;timestamp;P1;durP1;ratioP1;P2;durP2;ratioP2
751;SDS011;360;48.764;9.164;2022-07-17T00:01:26;9.50;;;2.90;;
751;SDS011;360;48.764;9.164;2022-07-17T00:03:53;9.90;;;2.53;;
751;SDS011;360;48.764;9.164;2022-07-17T00:06:19;8.53;;;2.23;;
751;SDS011;360;48.764;9.164;2022-07-17T00:08:46;9.53;;;1.90;;
751;SDS011;360;48.764;9.164;2022-07-17T00:11:13;8.50;;;2.10;;
751;SDS011;360;48.764;9.164;2022-07-17T00:13:40;9.27;;;2.40;;
751;SDS011;360;48.764;9.164;2022-07-17T00:16:07;9.43;;;1.63;;
751;SDS011;360;48.764;9.164;2022-07-17T00:18:36;8.30;;;1.97;;
751;SDS011;360;48.764;9.164;2022-07-17T00:21:03;11.63;;;2.50;;
751;SDS011;360;48.764;9.164;2022-07-17T00:23:31;13.00;;;2.17;;
751;SDS011;360;48.764;9.164;2022-07-17T00:25:58;9.00;;;2.27;;
751;SDS011;360;48.764;9.164;2022-07-17T00:28:25;8.47;;;2.00;;
751;SDS011;360;48.764;9.164;2022-07-17T00:30:52;10.20;;;2.20;;
751;SDS011;360;48.764;9.164;2022-07-17T00:33:19;10.20;;;2.30;;
751;SDS011;360;48.764;9.164;2022-07-17T00:35:48;9.63;;;2.20;;
751;SDS011;360;48.764;9.164;2022-07-17T00:38:15;9.07;;;2.17;;
751;SDS011;360;48.764;9.164;2022-07-17T00:40:42;10.90;;;2.53;;
751;SDS011;360;48.764;9.164;2022-07-17T00:43:10;9.60;;;2.17;;
751;SDS011;360;48.764;9.164;2022-07-17T00:45:37;8.43;;;2.30;;
751;SDS011;360;48.764;9.164;2022-07-17T00:48:05;9.43;;;2.17;;
751;SDS011;360;48.764;9.164;2022-07-17T00:50:33;11.67;;;1.97;;
751;SDS011;360;48.764;9.164;2022-07-17T00:53:03;11.33;;;2.70;;
751;SDS011;360;48.764;9.164;2022-07-17T00:55:30;8.13;;;1.83;;
751;SDS011;360;48.764;9.164;2022-07-17T00:57:58;9.30;;;2.27;;
751;SDS011;360;48.764;9.164;2022-07-17T01:00:27;9.13;;;1.80;;
751;SDS011;360;48.764;9.164;2022-07-17T01:02:54;8.40;;;2.20;;
751;SDS011;360;48.764;9.164;2022-07-17T01:05:21;9.20;;;2.20;;
751;SDS011;360;48.764;9.164;2022-07-17T01:07:49;9.00;;;2.10;;
751;SDS011;360;48.764;9.164;2022-07-17T01:10:18;10.40;;;2.50;;
751;SDS011;360;48.764;9.164;2022-07-17T01:12:45;9.00;;;2.53;;
751;SDS011;360;48.764;9.164;2022-07-17T01:15:13;9.60;;;2.33;;
751;SDS011;360;48.764;9.164;2022-07-17T01:17:41;9.53;;;2.20;;
751;SDS011;360;48.764;9.164;2022-07-17T01:20:09;8.77;;;2.10;;
751;SDS011;360;48.764;9.164;2022-07-17T01:22:41;9.00;;;2.40;;
751;SDS011;360;48.764;9.164;2022-07-17T01:25:09;8.73;;;1.97;;
751;SDS011;360;48.764;9.164;2022-07-17T01:27:36;8.57;;;2.07;;
751;SDS011;360;48.764;9.164;2022-07-17T01:30:03;10.00;;;2.70;;
751;SDS011;360;48.764;9.164;2022-07-17T01:32:31;10.53;;;2.50;;
751;SDS011;360;48.764;9.164;2022-07-17T01:34:59;10.27;;;2.70;;
751;SDS011;360;48.764;9.164;2022-07-17T01:37:26;8.90;;;2.80;;
751;SDS011;360;48.764;9.164;2022-07-17T01:39:54;8.30;;;2.00;;
751;SDS011;360;48.764;9.164;2022-07-17T01:42:22;8.50;;;2.30;;
751;SDS011;360;48.764;9.164;2022-07-17T01:44:50;7.50;;;1.73;;
751;SDS011;360;48.764;9.164;2022-07-17T01:47:17;8.83;;;2.20;;
751;SDS011;360;48.764;9.164;2022-07-17T01:49:45;8.73;;;1.90;;
751;SDS011;360;48.764;9.164;2022-07-17T01:52:12;8.60;;;2.17;;
751;SDS011;360;48.764;9.164;2022-07-17T01:54:40;8.40;;;2.20;;
751;SDS011;360;48.764;9.164;2022-07-17T01:57:09;8.70;;;2.20;;
751;SDS011;360;48.764;9.164;2022-07-17T01:59:36;8.70;;;2.30;;
751;SDS011;360;48.764;9.164;2022-07-17T02:02:04;8.50;;;2.40;;
751;SDS011;360;48.764;9.164;2022-07-17T02:04:31;8.47;;;2.47;;
751;SDS011;360;48.764;9.164;2022-07-17T02:06:58;9.90;;;2.73;;
751;SDS011;360;48.764;9.164;2022-07-17T02:09:25;10.63;;;2.50;;
751;SDS011;360;48.764;9.164;2022-07-17T02:11:53;8.20;;;2.33;;
751;SDS011;360;48.764;9.164;2022-07-17T02:14:21;7.60;;;1.97;;
751;SDS011;360;48.764;9.164;2022-07-17T02:16:49;8.77;;;2.30;;
751;SDS011;360;48.764;9.164;2022-07-17T02:19:16;8.20;;;2.23;;
751;SDS011;360;48.764;9.164;2022-07-17T02:21:43;9.30;;;2.63;;
751;SDS011;360;48.764;9.164;2022-07-17T02:24:10;8.10;;;2.10;;
751;SDS011;360;48.764;9.164;2022-07-17T02:26:37;8.57;;;2.33;;
751;SDS011;360;48.764;9.164;2022-07-17T02:29:04;8.50;;;2.23;;
751;SDS011;360;48.764;9.164;2022-07-17T02:31:33;9.47;;;2.70;;
751;SDS011;360;48.764;9.164;2022-07-17T02:34:00;8.73;;;2.57;;
751;SDS011;360;48.764;9.164;2022-07-17T02:36:27;8.47;;;2.40;;
751;SDS011;360;48.764;9.164;2022-07-17T02:38:55;9.17;;;2.23;;
751;SDS011;360;48.764;9.164;2022-07-17T02:41:23;9.23;;;2.47;;
751;SDS011;360;48.764;9.164;2022-07-17T02:43:50;9.10;;;2.47;;
751;SDS011;360;48.764;9.164;2022-07-17T02:46:17;9.67;;;2.47;;
751;SDS011;360;48.764;9.164;2022-07-17T02:48:45;9.60;;;2.57;;
751;SDS011;360;48.764;9.164;2022-07-17T02:51:12;9.20;;;2.27;;
751;SDS011;360;48.764;9.164;2022-07-17T02:53:39;9.27;;;2.83;;
751;SDS011;360;48.764;9.164;2022-07-17T02:56:07;9.17;;;2.80;;
751;SDS011;360;48.764;9.164;2022-07-17T02:58:34;9.47;;;2.50;;
751;SDS011;360;48.764;9.164;2022-07-17T03:01:01;9.73;;;3.17;;
751;SDS011;360;48.764;9.164;2022-07-17T03:03:28;9.00;;;2.77;;
751;SDS011;360;48.764;9.164;2022-07-17T03:05:57;8.17;;;2.20;;
751;SDS011;360;48.764;9.164;2022-07-17T03:08:24;9.33;;;2.40;;
751;SDS011;360;48.764;9.164;2022-07-17T03:10:51;9.27;;;3.00;;
751;SDS011;360;48.764;9.164;2022-07-17T03:13:18;12.20;;;2.30;;
751;SDS011;360;48.764;9.164;2022-07-17T03:15:45;10.07;;;2.73;;
751;SDS011;360;48.764;9.164;2022-07-17T03:18:12;9.80;;;2.80;;
751;SDS011;360;48.764;9.164;2022-07-17T03:20:39;11.40;;;2.40;;
751;SDS011;360;48.764;9.164;2022-07-17T03:23:08;9.57;;;2.97;;
751;SDS011;360;48.764;9.164;2022-07-17T03:25:36;10.37;;;2.47;;
751;SDS011;360;48.764;9.164;2022-07-17T03:28:03;9.50;;;2.60;;
751;SDS011;360;48.764;9.164;2022-07-17T03:30:30;9.80;;;2.27;;
751;SDS011;360;48.764;9.164;2022-07-17T03:32:57;12.20;;;3.00;;
751;SDS011;360;48.764;9.164;2022-07-17T03:35:24;10.43;;;2.87;;
751;SDS011;360;48.764;9.164;2022-07-17T03:37:51;9.63;;;2.70;;
751;SDS011;360;48.764;9.164;2022-07-17T03:40:20;9.03;;;2.33;;
751;SDS011;360;48.764;9.164;2022-07-17T03:42:47;8.80;;;2.27;;
751;SDS011;360;48.764;9.164;2022-07-17T03:45:14;9.33;;;2.30;;
751;SDS011;360;48.764;9.164;2022-07-17T03:47:42;9.47;;;2.30;;
751;SDS011;360;48.764;9.164;2022-07-17T03:50:09;8.87;;;2.37;;
751;SDS011;360;48.764;9.164;2022-07-17T03:52:36;9.47;;;2.37;;
751;SDS011;360;48.764;9.164;2022-07-17T03:55:03;9.10;;;2.63;;
751;SDS011;360;48.764;9.164;2022-07-17T03:57:32;13.67;;;2.93;;
751;SDS011;360;48.764;9.164;2022-07-17T03:59:59;9.60;;;2.63;;
751;SDS011;360;48.764;9.164;2022-07-17T04:02:26;10.00;;;2.70;;
751;SDS011;360;48.764;9.164;2022-07-17T04:04:53;10.17;;;3.37;;
751;SDS011;360;48.764;9.164;2022-07-17T04:07:20;9.60;;;2.77;;
751;SDS011;360;48.764;9.164;2022-07-17T04:09:55;9.87;;;2.67;;
751;SDS011;360;48.764;9.164;2022-07-17T04:12:22;10.20;;;3.40;;
751;SDS011;360;48.764;9.164;2022-07-17T04:14:51;12.97;;;2.93;;
751;SDS011;360;48.764;9.164;2022-07-17T04:17:18;10.40;;;3.03;;
751;SDS011;360;48.764;9.164;2022-07-17T04:19:45;9.30;;;2.77;;
751;SDS011;360;48.764;9.164;2022-07-17T04:22:12;9.17;;;2.53;;
751;SDS011;360;48.764;9.164;2022-07-17T04:24:39;9.80;;;2.90;;
751;SDS011;360;48.764;9.164;2022-07-17T04:27:07;10.77;;;2.60;;
751;SDS011;360;48.764;9.164;2022-07-17T04:29:34;9.17;;;2.13;;
751;SDS011;360;48.764;9.164;2022-07-17T04:32:03;11.03;;;3.13;;
751;SDS011;360;48.764;9.164;2022-07-17T04:34:30;10.70;;;3.43;;
751;SDS011;360;48.764;9.164;2022-07-17T04:36:59;10.23;;;3.13;;
751;SDS011;360;48.764;9.164;2022-07-17T04:39:26;10.70;;;2.93;;
751;SDS011;360;48.764;9.164;2022-07-17T04:41:53;9.20;;;2.53;;
751;SDS011;360;48.764;9.164;2022-07-17T04:44:20;10.37;;;2.87;;
751;SDS011;360;48.764;9.164;2022-07-17T04:46:48;9.43;;;2.70;;
751;SDS011;360;48.764;9.164;2022-07-17T04:49:16;10.20;;;2.73;;
751;SDS011;360;48.764;9.164;2022-07-17T04:51:43;9.80;;;2.70;;
751;SDS011;360;48.764;9.164;2022-07-17T04:54:11;9.57;;;2.60;;
751;SDS011;360;48.764;9.164;2022-07-17T04:56:38;9.40;;;2.50;;
751;SDS011;360;48.764;9.164;2022-07-17T04:59:05;10.77;;;2.60;;
751;SDS011;360;48.764;9.164;2022-07-17T05:01:32;10.33;;;3.13;;
751;SDS011;360;48.764;9.164;2022-07-17T05:03:59;10.17;;;2.60;;
751;SDS011;360;48.764;9.164;2022-07-17T05:06:29;9.43;;;2.27;;
751;SDS011;360;48.764;9.164;2022-07-17T05:08:56;9.37;;;2.50;;
751;SDS011;360;48.764;9.164;2022-07-17T05:11:23;11.60;;;3.00;;
751;SDS011;360;48.764;9.164;2022-07-17T05:13:50;9.07;;;2.33;;
751;SDS011;360;48.764;9.164;2022-07-17T05:16:17;9.30;;;2.63;;
751;SDS011;360;48.764;9.164;2022-07-17T05:18:45;9.40;;;2.40;;
751;SDS011;360;48.764;9.164;2022-07-17T05:21:12;9.40;;;2.50;;
751;SDS011;360;48.764;9.164;2022-07-17T05:23:41;10.60;;;3.00;;
751;SDS011;360;48.764;9.164;2022-07-17T05:26:08;9.30;;;2.10;;
751;SDS011;360;48.764;9.164;2022-07-17T05:28:35;9.07;;;2.30;;
751;SDS011;360;48.764;9.164;2022-07-17T05:31:03;11.23;;;3.10;;
751;SDS011;360;48.764;9.164;2022-07-17T05:33:30;9.17;;;2.60;;
751;SDS011;360;48.764;9.164;2022-07-17T05:35:57;9.77;;;2.37;;
751;SDS011;360;48.764;9.164;2022-07-17T05:38:24;10.13;;;2.60;;
751;SDS011;360;48.764;9.164;2022-07-17T05:40:53;9.90;;;2.70;;
751;SDS011;360;48.764;9.164;2022-07-17T05:43:20;8.70;;;2.30;;
751;SDS011;360;48.764;9.164;2022-07-17T05:45:47;8.90;;;2.60;;
751;SDS011;360;48.764;9.164;2022-07-17T05:48:15;10.50;;;2.70;;
751;SDS011;360;48.764;9.164;2022-07-17T05:50:42;9.93;;;2.77;;
751;SDS011;360;48.764;9.164;2022-07-17T05:53:09;10.00;;;3.00;;
751;SDS011;360;48.764;9.164;2022-07-17T05:55:36;10.27;;;3.10;;
751;SDS011;360;48.764;9.164;2022-07-17T05:58:04;9.90;;;3.00;;
751;SDS011;360;48.764;9.164;2022-07-17T06:00:32;9.90;;;3.30;;
751;SDS011;360;48.764;9.164;2022-07-17T06:03:00;13.27;;;3.70;;
751;SDS011;360;48.764;9.164;2022-07-17T06:05:27;11.87;;;4.27;;
751;SDS011;360;48.764;9.164;2022-07-17T06:07:54;11.00;;;3.70;;
751;SDS011;360;48.764;9.164;2022-07-17T06:10:22;11.37;;;3.63;;
751;SDS011;360;48.764;9.164;2022-07-17T06:12:49;9.20;;;2.83;;
751;SDS011;360;48.764;9.164;2022-07-17T06:15:19;8.97;;;2.93;;
751;SDS011;360;48.764;9.164;2022-07-17T06:17:46;10.77;;;3.90;;
751;SDS011;360;48.764;9.164;2022-07-17T06:20:13;9.70;;;3.50;;
751;SDS011;360;48.764;9.164;2022-07-17T06:22:41;11.20;;;3.33;;
751;SDS011;360;48.764;9.164;2022-07-17T06:25:08;8.83;;;3.03;;
751;SDS011;360;48.764;9.164;2022-07-17T06:27:37;10.67;;;3.70;;
751;SDS011;360;48.764;9.164;2022-07-17T06:30:05;12.50;;;4.13;;
751;SDS011;360;48.764;9.164;2022-07-17T06:32:34;12.70;;;3.70;;
751;SDS011;360;48.764;9.164;2022-07-17T06:35:01;10.70;;;3.20;;
751;SDS011;360;48.764;9.164;2022-07-17T06:37:28;10.37;;;3.53;;
751;SDS011;360;48.764;9.164;2022-07-17T06:39:55;10.67;;;3.23;;
751;SDS011;360;48.764;9.164;2022-07-17T06:42:22;12.03;;;3.53;;
751;SDS011;360;48.764;9.164;2022-07-17T06:44:49;10.60;;;3.80;;
751;SDS011;360;48.764;9.164;2022-07-17T06:47:17;9.83;;;2.67;;
751;SDS011;360;48.764;9.164;2022-07-17T06:49:45;11.60;;;4.00;;
751;SDS011;360;48.764;9.164;2022-07-17T06:52:12;10.30;;;3.40;;
751;SDS011;360;48.764;9.164;2022-07-17T06:54:39;11.80;;;3.60;;
751;SDS011;360;48.764;9.164;2022-07-17T06:57:07;8.00;;;2.20;;
751;SDS011;360;48.764;9.164;2022-07-17T06:59:34;15.10;;;3.70;;
751;SDS011;360;48.764;9.164;2022-07-17T07:02:01;10.80;;;3.80;;
751;SDS011;360;48.764;9.164;2022-07-17T07:04:28;9.67;;;2.80;;
751;SDS011;360;48.764;9.164;2022-07-17T07:06:56;11.33;;;3.23;;
751;SDS011;360;48.764;9.164;2022-07-17T07:09:23;9.53;;;2.73;;
751;SDS011;360;48.764;9.164;2022-07-17T07:11:51;10.43;;;3.43;;
751;SDS011;360;48.764;9.164;2022-07-17T07:14:18;8.70;;;3.03;;
751;SDS011;360;48.764;9.164;2022-07-17T07:16:46;8.30;;;2.40;;
751;SDS011;360;48.764;9.164;2022-07-17T07:19:13;10.00;;;3.20;;
751;SDS011;360;48.764;9.164;2022-07-17T07:21:40;11.97;;;3.07;;
751;SDS011;360;48.764;9.164;2022-07-17T07:24:08;10.20;;;2.87;;
751;SDS011;360;48.764;9.164;2022-07-17T07:26:35;9.67;;;2.90;;
751;SDS011;360;48.764;9.164;2022-07-17T07:29:03;9.43;;;2.50;;
751;SDS011;360;48.764;9.164;2022-07-17T07:31:30;11.37;;;2.60;;
751;SDS011;360;48.764;9.164;2022-07-17T07:33:57;8.90;;;2.70;;
751;SDS011;360;48.764;9.164;2022-07-17T07:36:25;17.03;;;3.07;;
751;SDS011;360;48.764;9.164;2022-07-17T07:38:52;8.70;;;2.20;;
751;SDS011;360;48.764;9.164;2022-07-17T07:41:21;10.43;;;2.80;;
751;SDS011;360;48.764;9.164;2022-07-17T07:43:48;9.67;;;3.00;;
751;SDS011;360;48.764;9.164;2022-07-17T07:46:15;10.87;;;2.90;;
751;SDS011;360;48.764;9.164;2022-07-17T07:48:42;10.50;;;3.17;;
751;SDS011;360;48.764;9.164;2022-07-17T07:51:10;11.60;;;3.33;;
751;SDS011;360;48.764;9.164;2022-07-17T07:53:37;9.37;;;2.93;;
751;SDS011;360;48.764;9.164;2022-07-17T07:56:04;10.23;;;2.97;;
751;SDS011;360;48.764;9.164;2022-07-17T07:58:33;8.57;;;2.33;;
751;SDS011;360;48.764;9.164;2022-07-17T08:01:00;8.47;;;2.60;;
751;SDS011;360;48.764;9.164;2022-07-17T08:03:28;9.20;;;2.33;;
751;SDS011;360;48.764;9.164;2022-07-17T08:05:55;12.47;;;2.70;;
751;SDS011;360;48.764;9.164;2022-07-17T08:08:22;8.60;;;2.40;;
751;SDS011;360;48.764;9.164;2022-07-17T08:10:49;9.17;;;2.63;;
751;SDS011;360;48.764;9.164;2022-07-17T08:13:16;10.60;;;2.40;;
751;SDS011;360;48.764;9.164;2022-07-17T08:15:45;9.30;;;1.70;;
751;SDS011;360;48.764;9.164;2022-07-17T08:18:12;8.80;;;2.63;;
751;SDS011;360;48.764;9.164;2022-07-17T08:20:39;8.20;;;2.30;;
751;SDS011;360;48.764;9.164;2022-07-17T08:23:07;8.40;;;2.00;;
751;SDS011;360;48.764;9.164;2022-07-17T08:25:35;11.30;;;2.20;;
751;SDS011;360;48.764;9.164;2022-07-17T08:28:02;8.80;;;2.10;;
751;SDS011;360;48.764;9.164;2022-07-17T08:30:29;8.67;;;2.57;;
751;SDS011;360;48.764;9.164;2022-07-17T08:33:01;8.80;;;2.30;;
751;SDS011;360;48.764;9.164;2022-07-17T08:35:28;9.87;;;2.17;;
751;SDS011;360;48.764;9.164;2022-07-17T08:37:55;9.13;;;2.10;;
751;SDS011;360;48.764;9.164;2022-07-17T08:40:25;9.10;;;1.83;;
751;SDS011;360;48.764;9.164;2022-07-17T08:42:53;8.63;;;2.20;;
751;SDS011;360;48.764;9.164;2022-07-17T08:45:20;8.70;;;2.00;;
751;SDS011;360;48.764;9.164;2022-07-17T08:47:47;9.07;;;2.20;;
751;SDS011;360;48.764;9.164;2022-07-17T08:50:18;9.30;;;1.97;;
751;SDS011;360;48.764;9.164;2022-07-17T08:52:48;9.77;;;2.07;;
751;SDS011;360;48.764;9.164;2022-07-17T08:55:16;8.73;;;1.93;;
751;SDS011;360;48.764;9.164;2022-07-17T08:57:44;10.23;;;2.40;;
751;SDS011;360;48.764;9.164;2022-07-17T09:00:11;9.07;;;1.70;;
751;SDS011;360;48.764;9.164;2022-07-17T09:02:39;9.13;;;2.00;;
751;SDS011;360;48.764;9.164;2022-07-17T09:05:07;9.50;;;2.23;;
751;SDS011;360;48.764;9.164;2022-07-17T09:07:44;9.57;;;2.17;;
751;SDS011;360;48.764;9.164;2022-07-17T09:10:11;9.00;;;2.20;;
751;SDS011;360;48.764;9.164;2022-07-17T09:12:39;9.90;;;2.23;;
751;SDS011;360;48.764;9.164;2022-07-17T09:15:13;9.20;;;2.40;;
751;SDS011;360;48.764;9.164;2022-07-17T09:17:46;9.40;;;1.83;;
751;SDS011;360;48.764;9.164;2022-07-17T09:20:14;8.57;;;2.07;;
751;SDS011;360;48.764;9.164;2022-07-17T09:22:43;9.40;;;1.87;;
751;SDS011;360;48.764;9.164;2022-07-17T09:25:10;11.43;;;2.37;;
751;SDS011;360;48.764;9.164;2022-07-17T09:27:38;9.30;;;2.23;;
751;SDS011;360;48.764;9.164;2022-07-17T09:30:07;8.50;;;1.67;;
751;SDS011;360;48.764;9.164;2022-07-17T09:32:36;8.50;;;1.63;;
751;SDS011;360;48.764;9.164;2022-07-17T09:35:05;8.50;;;1.83;;
751;SDS011;360;48.764;9.164;2022-07-17T09:37:33;8.63;;;2.17;;
751;SDS011;360;48.764;9.164;2022-07-17T09:40:02;8.83;;;1.53;;
751;SDS011;360;48.764;9.164;2022-07-17T09:42:30;9.10;;;1.90;;
751;SDS011;360;48.764;9.164;2022-07-17T09:44:58;8.70;;;1.87;;
751;SDS011;360;48.764;9.164;2022-07-17T09:47:26;8.90;;;1.80;;
751;SDS011;360;48.764;9.164;2022-07-17T09:49:54;8.40;;;1.40;;
751;SDS011;360;48.764;9.164;2022-07-17T09:52:22;8.70;;;1.70;;
751;SDS011;360;48.764;9.164;2022-07-17T09:54:50;9.37;;;1.50;;
751;SDS011;360;48.764;9.164;2022-07-17T09:57:19;8.90;;;1.53;;
751;SDS011;360;48.764;9.164;2022-07-17T09:59:47;8.80;;;1.70;;
751;SDS011;360;48.764;9.164;2022-07-17T10:02:15;8.70;;;1.70;;
751;SDS011;360;48.764;9.164;2022-07-17T10:04:43;9.03;;;1.67;;
751;SDS011;360;48.764;9.164;2022-07-17T10:07:12;8.60;;;1.40;;
751;SDS011;360;48.764;9.164;2022-07-17T10:09:40;8.60;;;1.60;;
751;SDS011;360;48.764;9.164;2022-07-17T10:12:07;8.70;;;1.60;;
751;SDS011;360;48.764;9.164;2022-07-17T10:14:36;8.47;;;1.30;;
751;SDS011;360;48.764;9.164;2022-07-17T10:17:06;8.50;;;1.47;;
751;SDS011;360;48.764;9.164;2022-07-17T10:19:34;8.90;;;1.47;;
751;SDS011;360;48.764;9.164;2022-07-17T10:22:09;9.60;;;1.70;;
751;SDS011;360;48.764;9.164;2022-07-17T10:24:44;9.40;;;1.70;;
751;SDS011;360;48.764;9.164;2022-07-17T10:27:17;8.43;;;1.43;;
751;SDS011;360;48.764;9.164;2022-07-17T10:29:46;8.60;;;1.40;;
751;SDS011;360;48.764;9.164;2022-07-17T10:32:14;8.47;;;1.53;;
751;SDS011;360;48.764;9.164;2022-07-17T10:34:42;8.83;;;1.70;;
751;SDS011;360;48.764;9.164;2022-07-17T10:37:20;8.90;;;1.90;;
751;SDS011;360;48.764;9.164;2022-07-17T10:39:57;9.67;;;1.63;;
751;SDS011;360;48.764;9.164;2022-07-17T10:42:38;8.80;;;1.60;;
751;SDS011;360;48.764;9.164;2022-07-17T10:45:07;9.10;;;2.00;;
751;SDS011;360;48.764;9.164;2022-07-17T10:47:48;9.17;;;1.80;;
751;SDS011;360;48.764;9.164;2022-07-17T10:50:16;10.10;;;1.70;;
751;SDS011;360;48.764;9.164;2022-07-17T10:52:43;8.67;;;1.70;;
751;SDS011;360;48.764;9.164;2022-07-17T10:55:17;8.17;;;1.50;;
751;SDS011;360;48.764;9.164;2022-07-17T10:57:45;10.10;;;1.57;;
751;SDS011;360;48.764;9.164;2022-07-17T11:00:15;8.70;;;1.50;;
751;SDS011;360;48.764;9.164;2022-07-17T11:02:42;9.90;;;1.90;;
751;SDS011;360;48.764;9.164;2022-07-17T11:05:12;9.17;;;1.70;;
751;SDS011;360;48.764;9.164;2022-07-17T11:07:52;8.80;;;1.90;;
751;SDS011;360;48.764;9.164;2022-07-17T11:10:20;8.60;;;1.70;;
751;SDS011;360;48.764;9.164;2022-07-17T11:12:47;8.87;;;1.73;;
751;SDS011;360;48.764;9.164;2022-07-17T11:15:16;8.50;;;1.40;;
751;SDS011;360;48.764;9.164;2022-07-17T11:17:44;8.30;;;1.50;;
751;SDS011;360;48.764;9.164;2022-07-17T11:20:11;8.37;;;1.60;;
751;SDS011;360;48.764;9.164;2022-07-17T11:22:39;10.70;;;1.67;;
751;SDS011;360;48.764;9.164;2022-07-17T11:25:06;8.27;;;1.43;;
751;SDS011;360;48.764;9.164;2022-07-17T11:27:35;10.27;;;1.93;;
751;SDS011;360;48.764;9.164;2022-07-17T11:30:04;9.63;;;1.50;;
751;SDS011;360;48.764;9.164;2022-07-17T11:32:33;8.87;;;1.63;;
751;SDS011;360;48.764;9.164;2022-07-17T11:35:00;8.30;;;1.40;;
751;SDS011;360;48.764;9.164;2022-07-17T11:37:28;8.40;;;1.50;;
751;SDS011;360;48.764;9.164;2022-07-17T11:39:55;8.97;;;2.33;;
751;SDS011;360;48.764;9.164;2022-07-17T11:42:23;8.63;;;1.67;;
751;SDS011;360;48.764;9.164;2022-07-17T11:44:51;8.47;;;1.83;;
751;SDS011;360;48.764;9.164;2022-07-17T11:47:20;8.27;;;1.70;;
751;SDS011;360;48.764;9.164;2022-07-17T11:49:48;9.40;;;1.80;;
751;SDS011;360;48.764;9.164;2022-07-17T11:52:16;8.70;;;1.63;;
751;SDS011;360;48.764;9.164;2022-07-17T11:54:45;8.30;;;1.70;;
751;SDS011;360;48.764;9.164;2022-07-17T11:57:14;8.50;;;1.70;;
751;SDS011;360;48.764;9.164;2022-07-17T11:59:42;8.17;;;1.70;;
751;SDS011;360;48.764;9.164;2022-07-17T12:02:10;8.30;;;1.97;;
751;SDS011;360;48.764;9.164;2022-07-17T12:04:49;8.43;;;1.77;;
751;SDS011;360;48.764;9.164;2022-07-17T12:07:16;8.20;;;1.50;;
751;SDS011;360;48.764;9.164;2022-07-17T12:09:44;8.23;;;2.00;;
751;SDS011;360;48.764;9.164;2022-07-17T12:12:18;8.10;;;1.60;;
751;SDS011;360;48.764;9.164;2022-07-17T12:14:46;8.20;;;1.70;;
751;SDS011;360;48.764;9.164;2022-07-17T12:17:13;8.57;;;2.00;;
751;SDS011;360;48.764;9.164;2022-07-17T12:19:41;8.40;;;1.90;;
751;SDS011;360;48.764;9.164;2022-07-17T12:22:09;7.83;;;1.60;;
751;SDS011;360;48.764;9.164;2022-07-17T12:24:37;8.00;;;1.70;;
751;SDS011;360;48.764;9.164;2022-07-17T12:27:06;8.00;;;2.00;;
751;SDS011;360;48.764;9.164;2022-07-17T12:29:34;9.40;;;1.97;;
751;SDS011;360;48.764;9.164;2022-07-17T12:32:05;7.90;;;1.80;;
751;SDS011;360;48.764;9.164;2022-07-17T12:34:33;8.10;;;1.90;;
751;SDS011;360;48.764;9.164;2022-07-17T12:37:00;9.60;;;1.50;;
751;SDS011;360;48.764;9.164;2022-07-17T12:39:28;9.00;;;2.20;;
751;SDS011;360;48.764;9.164;2022-07-17T12:41:56;8.33;;;2.00;;
751;SDS011;360;48.764;9.164;2022-07-17T12:44:23;8.07;;;1.70;;
751;SDS011;360;48.764;9.164;2022-07-17T12:46:51;7.50;;;1.57;;
751;SDS011;360;48.764;9.164;2022-07-17T12:49:18;8.40;;;1.63;;
751;SDS011;360;48.764;9.164;2022-07-17T12:51:45;7.40;;;1.30;;
751;SDS011;360;48.764;9.164;2022-07-17T12:54:12;9.93;;;2.10;;
751;SDS011;360;48.764;9.164;2022-07-17T12:56:41;8.23;;;1.80;;
751;SDS011;360;48.764;9.164;2022-07-17T12:59:08;8.50;;;1.53;;
751;SDS011;360;48.764;9.164;2022-07-17T13:01:35;7.57;;;1.60;;
751;SDS011;360;48.764;9.164;2022-07-17T13:04:03;8.10;;;1.80;;
751;SDS011;360;48.764;9.164;2022-07-17T13:06:30;8.93;;;1.83;;
751;SDS011;360;48.764;9.164;2022-07-17T13:08:58;7.87;;;1.77;;
751;SDS011;360;48.764;9.164;2022-07-17T13:11:25;8.47;;;1.60;;
751;SDS011;360;48.764;9.164;2022-07-17T13:13:55;8.20;;;1.80;;
751;SDS011;360;48.764;9.164;2022-07-17T13:16:22;8.63;;;1.60;;
751;SDS011;360;48.764;9.164;2022-07-17T13:18:49;8.00;;;1.60;;
751;SDS011;360;48.764;9.164;2022-07-17T13:21:17;7.77;;;1.80;;
751;SDS011;360;48.764;9.164;2022-07-17T13:23:44;7.60;;;1.50;;
751;SDS011;360;48.764;9.164;2022-07-17T13:26:11;7.60;;;1.57;;
751;SDS011;360;48.764;9.164;2022-07-17T13:28:38;10.13;;;2.23;;
751;SDS011;360;48.764;9.164;2022-07-17T13:31:07;8.77;;;1.90;;
751;SDS011;360;48.764;9.164;2022-07-17T13:33:34;7.90;;;1.70;;
751;SDS011;360;48.764;9.164;2022-07-17T13:36:01;7.70;;;1.60;;
751;SDS011;360;48.764;9.164;2022-07-17T13:38:28;8.13;;;1.60;;
751;SDS011;360;48.764;9.164;2022-07-17T13:40:55;7.60;;;1.60;;
751;SDS011;360;48.764;9.164;2022-07-17T13:43:22;7.57;;;1.33;;
751;SDS011;360;48.764;9.164;2022-07-17T13:45:50;8.50;;;2.10;;
751;SDS011;360;48.764;9.164;2022-07-17T13:48:18;7.37;;;1.33;;
751;SDS011;360;48.764;9.164;2022-07-17T13:50:45;7.83;;;1.67;;
751;SDS011;360;48.764;9.164;2022-07-17T13:53:12;7.60;;;1.53;;
751;SDS011;360;48.764;9.164;2022-07-17T13:55:40;8.30;;;2.00;;
751;SDS011;360;48.764;9.164;2022-07-17T13:58:08;9.00;;;2.53;;
751;SDS011;360;48.764;9.164;2022-07-17T14:00:35;8.03;;;1.83;;
751;SDS011;360;48.764;9.164;2022-07-17T14:03:03;7.93;;;1.73;;
751;SDS011;360;48.764;9.164;2022-07-17T14:05:31;8.07;;;2.03;;
751;SDS011;360;48.764;9.164;2022-07-17T14:07:59;8.20;;;1.70;;
751;SDS011;360;48.764;9.164;2022-07-17T14:10:26;8.30;;;1.80;;
751;SDS011;360;48.764;9.164;2022-07-17T14:12:53;7.90;;;1.50;;
751;SDS011;360;48.764;9.164;2022-07-17T14:15:20;8.10;;;1.88;;
751;SDS011;360;48.764;9.164;2022-07-17T14:17:47;8.70;;;2.60;;
751;SDS011;360;48.764;9.164;2022-07-17T14:20:14;8.35;;;1.58;;
751;SDS011;360;48.764;9.164;2022-07-17T14:22:43;8.18;;;1.95;;
751;SDS011;360;48.764;9.164;2022-07-17T14:25:10;8.77;;;2.30;;
751;SDS011;360;48.764;9.164;2022-07-17T14:27:37;8.07;;;1.95;;
751;SDS011;360;48.764;9.164;2022-07-17T14:30:05;8.18;;;1.77;;
751;SDS011;360;48.764;9.164;2022-07-17T14:32:32;8.00;;;1.90;;
751;SDS011;360;48.764;9.164;2022-07-17T14:34:59;8.13;;;1.98;;
751;SDS011;360;48.764;9.164;2022-07-17T14:37:27;8.70;;;1.70;;
751;SDS011;360;48.764;9.164;2022-07-17T14:39:56;7.90;;;1.40;;
751;SDS011;360;48.764;9.164;2022-07-17T14:42:23;7.90;;;1.58;;
751;SDS011;360;48.764;9.164;2022-07-17T14:44:50;7.85;;;1.40;;
751;SDS011;360;48.764;9.164;2022-07-17T14:47:18;7.72;;;1.52;;
751;SDS011;360;48.764;9.164;2022-07-17T14:49:46;8.00;;;1.40;;
751;SDS011;360;48.764;9.164;2022-07-17T14:52:13;8.80;;;1.85;;
751;SDS011;360;48.764;9.164;2022-07-17T14:54:40;8.05;;;1.73;;
751;SDS011;360;48.764;9.164;2022-07-17T14:57:08;8.07;;;1.67;;
751;SDS011;360;48.764;9.164;2022-07-17T14:59:35;8.18;;;1.70;;
751;SDS011;360;48.764;9.164;2022-07-17T15:02:02;8.13;;;1.70;;
751;SDS011;360;48.764;9.164;2022-07-17T15:04:29;8.02;;;1.45;;
751;SDS011;360;48.764;9.164;2022-07-17T15:06:56;7.82;;;1.30;;
751;SDS011;360;48.764;9.164;2022-07-17T15:09:23;7.95;;;1.52;;
751;SDS011;360;48.764;9.164;2022-07-17T15:11:51;8.07;;;1.70;;
751;SDS011;360;48.764;9.164;2022-07-17T15:14:19;8.00;;;1.50;;
751;SDS011;360;48.764;9.164;2022-07-17T15:16:46;8.20;;;1.55;;
751;SDS011;360;48.764;9.164;2022-07-17T15:19:14;8.30;;;1.90;;
751;SDS011;360;48.764;9.164;2022-07-17T15:21:41;7.90;;;1.52;;
751;SDS011;360;48.764;9.164;2022-07-17T15:24:08;9.05;;;1.60;;
751;SDS011;360;48.764;9.164;2022-07-17T15:26:35;8.23;;;1.58;;
751;SDS011;360;48.764;9.164;2022-07-17T15:29:02;8.30;;;1.92;;
751;SDS011;360;48.764;9.164;2022-07-17T15:31:31;8.38;;;1.50;;
751;SDS011;360;48.764;9.164;2022-07-17T15:33:58;8.05;;;1.50;;
751;SDS011;360;48.764;9.164;2022-07-17T15:36:25;8.18;;;1.70;;
751;SDS011;360;48.764;9.164;2022-07-17T15:38:53;10.65;;;2.55;;
751;SDS011;360;48.764;9.164;2022-07-17T15:41:21;9.13;;;1.40;;
751;SDS011;360;48.764;9.164;2022-07-17T15:43:49;8.10;;;1.67;;
751;SDS011;360;48.764;9.164;2022-07-17T15:46:16;7.90;;;1.67;;